createdAt,value
2023-05-15T00:01:41.314Z,8.00
2023-05-15T00:04:08.348Z,8.30
2023-05-15T00:06:35.619Z,8.60
2023-05-15T00:09:02.657Z,8.30
2023-05-15T00:11:29.740Z,8.90
2023-05-15T00:13:56.817Z,8.70
2023-05-15T00:16:24.662Z,8.30
2023-05-15T00:18:51.744Z,8.50
2023-05-15T00:21:20.207Z,8.90
2023-05-15T00:23:47.879Z,8.50
2023-05-15T00:26:15.965Z,8.70
2023-05-15T00:28:43.125Z,8.50
2023-05-15T00:31:11.367Z,8.90
2023-05-15T00:33:38.427Z,8.40
2023-05-15T00:36:06.123Z,8.40
2023-05-15T00:38:33.930Z,7.70
2023-05-15T00:41:01.930Z,8.40
2023-05-15T00:43:29.017Z,8.40
2023-05-15T00:45:56.154Z,8.50
2023-05-15T00:48:23.156Z,8.60
2023-05-15T00:50:51.705Z,7.70
2023-05-15T00:53:19.114Z,8.40
2023-05-15T00:55:47.316Z,9.10
2023-05-15T00:58:15.070Z,9.40
2023-05-15T01:00:45.296Z,9.00
2023-05-15T01:03:12.439Z,8.70
2023-05-15T01:05:39.529Z,8.90
2023-05-15T01:08:23.004Z,8.60
2023-05-15T01:10:51.148Z,8.20
2023-05-15T01:13:22.666Z,8.80
2023-05-15T01:15:50.082Z,7.90
2023-05-15T01:18:17.599Z,8.30
2023-05-15T01:21:06.444Z,8.20
2023-05-15T01:24:17.262Z,8.30
2023-05-15T01:27:20.506Z,8.20
2023-05-15T01:29:57.111Z,8.90
2023-05-15T01:32:28.730Z,8.60
2023-05-15T01:35:05.541Z,8.30
2023-05-15T01:37:34.595Z,7.60
2023-05-15T01:40:03.463Z,8.10
2023-05-15T01:42:36.868Z,8.10
2023-05-15T01:45:06.028Z,8.20
2023-05-15T01:47:42.305Z,8.90
2023-05-15T01:50:10.776Z,7.90
2023-05-15T01:52:40.616Z,8.70
2023-05-15T01:55:08.101Z,9.10
2023-05-15T01:57:35.389Z,9.30
2023-05-15T02:00:03.234Z,9.10
2023-05-15T02:02:50.297Z,10.20
2023-05-15T02:05:18.912Z,10.50
2023-05-15T02:07:46.774Z,10.30
2023-05-15T02:10:15.672Z,8.60
2023-05-15T02:12:47.176Z,10.20
2023-05-15T02:15:14.385Z,9.50
2023-05-15T02:17:41.681Z,10.00
2023-05-15T02:20:09.238Z,9.70
2023-05-15T02:22:38.331Z,9.50
2023-05-15T02:25:06.332Z,8.60
2023-05-15T02:28:00.508Z,9.10
2023-05-15T02:30:46.050Z,9.90
2023-05-15T02:33:22.300Z,9.80
2023-05-15T02:35:57.241Z,10.40
2023-05-15T02:38:29.535Z,9.60
2023-05-15T02:40:58.982Z,8.50
2023-05-15T02:43:26.222Z,9.10
2023-05-15T02:45:53.388Z,9.30
2023-05-15T02:48:20.582Z,9.90
2023-05-15T02:50:47.652Z,9.50
2023-05-15T02:53:16.264Z,9.60
2023-05-15T02:55:43.537Z,9.90
2023-05-15T02:58:10.992Z,9.50
2023-05-15T03:00:38.058Z,9.90
2023-05-15T03:03:05.128Z,9.90
2023-05-15T03:05:32.183Z,9.90
2023-05-15T03:08:01.308Z,10.50
2023-05-15T03:10:28.394Z,10.20
2023-05-15T03:12:58.634Z,9.80
2023-05-15T03:15:26.052Z,9.80
2023-05-15T03:17:53.538Z,10.30
2023-05-15T03:20:20.672Z,9.80
2023-05-15T03:22:47.758Z,9.50
2023-05-15T03:25:18.406Z,9.10
2023-05-15T03:27:46.719Z,10.20
2023-05-15T03:30:13.818Z,10.20
2023-05-15T03:32:40.928Z,11.80
2023-05-15T03:35:08.511Z,13.20
2023-05-15T03:37:35.593Z,13.10
2023-05-15T03:40:03.710Z,13.30
2023-05-15T03:42:30.804Z,13.30
2023-05-15T03:44:58.008Z,12.70
2023-05-15T03:47:26.597Z,12.00
2023-05-15T03:49:53.830Z,11.80
2023-05-15T03:52:21.123Z,10.70
2023-05-15T03:54:48.202Z,10.30
2023-05-15T03:57:15.257Z,10.90
2023-05-15T03:59:42.321Z,10.70
2023-05-15T04:02:09.496Z,10.50
2023-05-15T04:04:37.758Z,12.40
2023-05-15T04:07:05.816Z,12.10
2023-05-15T04:09:33.023Z,13.20
2023-05-15T04:12:00.064Z,13.90
2023-05-15T04:14:27.168Z,12.30
2023-05-15T04:16:54.314Z,12.50
2023-05-15T04:19:21.439Z,12.60
2023-05-15T04:21:48.541Z,12.90
2023-05-15T04:24:16.201Z,13.20
2023-05-15T04:26:43.565Z,13.00
2023-05-15T04:29:10.682Z,14.10
2023-05-15T04:31:38.756Z,13.50
2023-05-15T04:34:06.720Z,14.50
2023-05-15T04:36:34.348Z,13.60
2023-05-15T04:39:01.405Z,13.90
2023-05-15T04:41:28.707Z,13.70
2023-05-15T04:43:56.264Z,13.00
2023-05-15T04:46:23.457Z,13.00
2023-05-15T04:48:51.203Z,12.80
2023-05-15T04:51:18.311Z,11.30
2023-05-15T04:53:45.446Z,12.00
2023-05-15T04:56:13.732Z,12.00
2023-05-15T04:58:41.675Z,11.90
2023-05-15T05:01:08.867Z,11.30
2023-05-15T05:03:35.959Z,12.30
2023-05-15T05:06:03.029Z,11.80
2023-05-15T05:08:30.075Z,11.10
2023-05-15T05:10:59.994Z,12.30
2023-05-15T05:13:28.058Z,12.20
2023-05-15T05:15:55.296Z,11.70
2023-05-15T05:18:22.674Z,12.20
2023-05-15T05:20:50.827Z,11.80
2023-05-15T05:23:19.331Z,12.10
2023-05-15T05:25:46.403Z,12.00
2023-05-15T05:28:13.442Z,11.00
2023-05-15T05:30:40.866Z,11.50
2023-05-15T05:33:08.152Z,11.40
2023-05-15T05:35:35.268Z,10.70
2023-05-15T05:38:02.310Z,11.60
2023-05-15T05:40:29.955Z,9.70
2023-05-15T05:43:03.315Z,9.80
2023-05-15T05:45:31.534Z,9.00
2023-05-15T05:47:59.879Z,8.50
2023-05-15T05:50:27.013Z,8.60
2023-05-15T05:52:54.017Z,7.80
2023-05-15T05:55:21.077Z,8.30
2023-05-15T05:57:48.074Z,7.80
2023-05-15T06:00:15.551Z,8.00
2023-05-15T06:02:42.712Z,7.90
2023-05-15T06:05:10.422Z,7.70
2023-05-15T06:07:37.562Z,8.10
2023-05-15T06:10:05.192Z,8.00
2023-05-15T06:12:32.233Z,8.20
2023-05-15T06:14:59.277Z,8.00
2023-05-15T06:17:26.431Z,7.10
2023-05-15T06:19:55.337Z,7.00
2023-05-15T06:22:32.822Z,7.30
2023-05-15T06:24:59.976Z,6.30
2023-05-15T06:27:27.724Z,6.50
2023-05-15T06:29:55.051Z,5.90
2023-05-15T06:32:22.107Z,6.00
2023-05-15T06:34:49.233Z,5.80
2023-05-15T06:37:16.315Z,4.00
2023-05-15T06:39:43.420Z,4.00
2023-05-15T06:42:10.616Z,4.60
2023-05-15T06:44:38.352Z,4.00
2023-05-15T06:47:06.139Z,3.90
2023-05-15T06:49:33.547Z,4.30
2023-05-15T06:52:00.708Z,3.50
2023-05-15T06:54:27.863Z,3.40
2023-05-15T06:57:08.505Z,3.50
2023-05-15T06:59:36.012Z,3.20
2023-05-15T07:02:03.815Z,3.30
2023-05-15T07:04:33.815Z,3.40
2023-05-15T07:07:00.876Z,3.80
2023-05-15T07:09:29.546Z,3.90
2023-05-15T07:11:57.194Z,3.80
2023-05-15T07:14:24.436Z,3.60
2023-05-15T07:16:51.506Z,3.40
2023-05-15T07:19:22.073Z,3.40
2023-05-15T07:39:07.487Z,3.70
2023-05-15T07:41:34.581Z,3.20
2023-05-15T07:44:01.575Z,3.20
2023-05-15T07:46:28.749Z,3.40
2023-05-15T07:48:56.837Z,3.00
2023-05-15T07:51:26.908Z,3.30
2023-05-15T07:53:54.791Z,3.10
2023-05-15T07:56:21.824Z,3.20
2023-05-15T07:58:49.845Z,3.20
2023-05-15T08:01:22.260Z,3.30
2023-05-15T08:03:49.723Z,3.00
2023-05-15T13:22:30.657Z,2.50
2023-05-15T13:24:59.241Z,2.40
2023-05-15T13:27:26.883Z,2.30
2023-05-15T13:29:56.185Z,2.10
2023-05-15T13:32:31.997Z,2.60
2023-05-15T13:35:04.349Z,2.40
2023-05-15T13:37:33.181Z,2.00
2023-05-15T13:40:00.085Z,1.80
2023-05-15T13:42:26.953Z,2.20
2023-05-15T13:44:53.748Z,2.00
2023-05-15T13:47:21.421Z,2.00
2023-05-15T13:49:48.316Z,1.90
2023-05-15T13:52:15.268Z,2.30
2023-05-15T13:54:42.493Z,1.90
2023-05-15T13:57:09.994Z,2.30
2023-05-15T13:59:37.394Z,1.90
2023-05-15T14:02:04.409Z,2.20
2023-05-15T14:04:31.285Z,2.10
2023-05-15T14:06:58.132Z,2.20
2023-05-15T14:09:28.432Z,2.10
2023-05-15T14:11:55.912Z,2.20
2023-05-15T14:14:23.027Z,2.20
2023-05-15T14:16:49.984Z,2.10
2023-05-15T14:19:17.426Z,2.10
2023-05-15T14:21:44.490Z,2.10
2023-05-15T14:24:11.336Z,2.00
2023-05-15T14:26:38.522Z,1.90
2023-05-15T14:29:05.620Z,1.70
2023-05-15T14:31:33.386Z,2.20
2023-05-15T14:34:00.857Z,1.90
2023-05-15T14:36:27.746Z,2.00
2023-05-15T14:38:54.654Z,1.80
2023-05-15T14:41:21.768Z,1.90
2023-05-15T14:43:51.561Z,1.90
2023-05-15T14:46:18.898Z,2.20
2023-05-15T14:48:45.936Z,2.20
2023-05-15T14:51:12.751Z,2.30
2023-05-15T14:53:39.556Z,2.00
2023-05-15T14:56:06.378Z,2.20
2023-05-15T14:58:33.771Z,2.30
2023-05-15T15:01:00.678Z,2.00
2023-05-15T15:03:29.982Z,2.10
2023-05-15T15:05:58.030Z,1.70
2023-05-15T15:08:25.294Z,2.10
2023-05-15T15:10:52.073Z,1.90
2023-05-15T15:13:19.026Z,2.10
2023-05-15T15:15:46.019Z,1.90
2023-05-15T15:18:12.892Z,1.90
2023-05-15T15:20:40.652Z,1.90
2023-05-15T15:23:07.391Z,2.00
2023-05-15T15:25:35.049Z,1.80
2023-05-15T15:28:02.335Z,1.90
2023-05-15T15:30:30.935Z,2.00
2023-05-15T15:33:00.795Z,1.90
2023-05-15T15:35:28.650Z,1.90
2023-05-15T15:37:55.975Z,1.90
2023-05-15T15:40:23.778Z,2.10
2023-05-15T15:42:51.171Z,1.90
2023-05-15T15:45:18.017Z,2.20
2023-05-15T15:47:45.102Z,2.10
2023-05-15T15:50:12.027Z,1.80
2023-05-15T15:52:39.620Z,2.10
2023-05-15T15:55:07.153Z,2.00
2023-05-15T15:57:34.507Z,2.20
2023-05-15T16:00:03.527Z,2.00
2023-05-15T16:02:32.867Z,2.00
2023-05-15T16:05:01.363Z,2.50
2023-05-15T16:07:28.153Z,2.20
2023-05-15T16:10:04.222Z,2.50
2023-05-15T16:12:38.759Z,2.40
2023-05-15T16:15:20.888Z,2.30
2023-05-15T16:17:53.658Z,2.30
2023-05-15T16:20:22.156Z,2.00
2023-05-15T16:22:49.320Z,2.60
2023-05-15T16:25:16.404Z,2.50
2023-05-15T16:27:45.940Z,2.30
2023-05-15T16:30:13.302Z,2.00
2023-05-15T16:32:40.263Z,1.90
2023-05-15T16:35:07.920Z,2.20
2023-05-15T16:37:35.146Z,2.00
2023-05-15T16:40:03.811Z,1.90
2023-05-15T16:42:36.841Z,2.10
2023-05-15T16:45:04.902Z,2.30
2023-05-15T16:47:31.812Z,2.50
2023-05-15T16:49:58.732Z,3.20
2023-05-15T16:52:25.616Z,3.10
2023-05-15T16:54:54.946Z,2.80
2023-05-15T16:57:22.394Z,2.90
2023-05-15T16:59:49.369Z,2.70
2023-05-15T17:02:16.442Z,2.60
2023-05-15T17:04:43.453Z,2.70
2023-05-15T17:07:10.308Z,2.40
2023-05-15T17:09:39.701Z,2.50
2023-05-15T17:12:06.868Z,2.00
2023-05-15T17:14:34.399Z,2.20
2023-05-15T17:17:02.422Z,2.20
2023-05-15T17:19:30.735Z,2.20
2023-05-15T17:21:57.626Z,2.20
2023-05-15T17:24:25.024Z,2.80
2023-05-15T17:26:55.008Z,2.50
2023-05-15T17:29:23.889Z,2.20
2023-05-15T17:31:51.790Z,2.30
2023-05-15T17:34:18.866Z,2.30
2023-05-15T17:36:47.961Z,2.20
2023-05-15T17:39:14.966Z,1.90
2023-05-15T17:41:42.426Z,2.20
2023-05-15T17:44:09.211Z,2.40
2023-05-15T17:46:36.073Z,1.90
2023-05-15T17:49:03.191Z,2.30
2023-05-15T17:51:30.489Z,2.40
2023-05-15T17:53:57.334Z,2.80
2023-05-15T17:56:25.022Z,2.60
2023-05-15T17:58:51.873Z,2.50
2023-05-15T18:01:19.586Z,2.60
2023-05-15T18:03:46.737Z,2.50
2023-05-15T18:06:13.987Z,2.60
2023-05-15T18:08:47.414Z,2.50
2023-05-15T18:11:21.952Z,2.10
2023-05-15T18:13:49.699Z,2.30
2023-05-15T18:16:17.871Z,2.70
2023-05-15T18:18:45.498Z,2.60
2023-05-15T18:21:12.382Z,2.80
2023-05-15T18:23:39.268Z,2.50
2023-05-15T18:26:07.380Z,2.70
2023-05-15T18:28:34.636Z,3.10
2023-05-15T18:31:01.520Z,3.10
2023-05-15T18:33:29.097Z,2.80
2023-05-15T18:35:55.819Z,2.60
2023-05-15T18:38:22.631Z,2.80
2023-05-15T18:40:49.492Z,2.80
2023-05-15T18:43:19.934Z,2.90
2023-05-15T18:45:50.063Z,2.90
2023-05-15T18:48:16.841Z,2.50
2023-05-15T18:50:43.744Z,3.10
2023-05-15T18:53:10.582Z,3.00
2023-05-15T18:55:39.006Z,3.10
2023-05-15T18:58:06.128Z,2.90
2023-05-15T19:00:38.842Z,3.00
2023-05-15T19:03:07.947Z,3.30
2023-05-15T19:05:35.254Z,3.70
2023-05-15T19:08:02.630Z,3.50
2023-05-15T19:10:30.103Z,4.00
2023-05-15T19:12:57.369Z,3.70
2023-05-15T19:15:24.518Z,4.20
2023-05-15T19:17:55.696Z,4.60
2023-05-15T19:20:22.559Z,4.40
2023-05-15T19:22:49.552Z,4.40
2023-05-15T19:25:16.466Z,4.20
2023-05-15T19:27:43.446Z,3.90
2023-05-15T19:30:11.282Z,3.60
2023-05-15T19:32:38.707Z,3.50
2023-05-15T19:35:06.096Z,3.50
2023-05-15T19:37:33.462Z,3.50
2023-05-15T19:40:00.729Z,3.10
2023-05-15T19:42:27.628Z,3.80
2023-05-15T19:44:54.444Z,3.40
2023-05-15T19:47:21.553Z,3.30
2023-05-15T19:49:49.098Z,2.90
2023-05-15T19:52:16.156Z,3.30
2023-05-15T19:54:43.751Z,3.30
2023-05-15T19:57:13.191Z,3.10
2023-05-15T19:59:40.179Z,2.90
2023-05-15T20:02:09.949Z,3.80
2023-05-15T20:04:37.159Z,3.20
2023-05-15T20:07:04.176Z,2.90
2023-05-15T20:09:33.875Z,3.00
2023-05-15T20:12:02.810Z,3.30
2023-05-15T20:14:31.561Z,2.70
2023-05-15T20:16:58.425Z,3.10
2023-05-15T20:19:25.762Z,3.20
2023-05-15T20:21:52.701Z,3.10
2023-05-15T20:24:25.831Z,3.10
2023-05-15T20:26:54.066Z,2.90
2023-05-15T20:29:22.433Z,3.00
2023-05-15T20:31:51.755Z,2.70
2023-05-15T20:34:19.771Z,3.10
2023-05-15T20:36:46.821Z,3.00
2023-05-15T20:39:16.782Z,3.40
2023-05-15T20:41:43.584Z,3.20
2023-05-15T20:44:12.025Z,3.10
2023-05-15T20:46:39.899Z,2.90
2023-05-15T20:49:07.124Z,3.10
2023-05-15T20:51:34.029Z,3.00
2023-05-15T20:54:00.997Z,3.00
2023-05-15T20:56:28.025Z,3.00
2023-05-15T20:58:56.399Z,2.90
2023-05-15T21:01:26.048Z,3.00
2023-05-15T21:03:53.022Z,3.00
2023-05-15T21:06:21.158Z,3.30
2023-05-15T21:08:48.552Z,3.20
2023-05-15T21:11:15.983Z,3.20
2023-05-15T21:13:42.831Z,2.70
2023-05-15T21:16:09.734Z,2.90
2023-05-15T21:18:41.157Z,3.00
2023-05-15T21:21:08.120Z,2.90
2023-05-15T21:23:37.926Z,2.70
2023-05-15T21:26:04.990Z,2.60
2023-05-15T21:28:31.999Z,3.00
2023-05-15T21:31:06.060Z,2.80
2023-05-15T21:33:33.337Z,3.40
2023-05-15T21:36:00.698Z,3.00
2023-05-15T21:38:28.413Z,3.40
2023-05-15T21:40:55.345Z,3.10
2023-05-15T21:43:22.393Z,2.70
2023-05-15T21:45:50.157Z,2.90
2023-05-15T21:48:17.120Z,2.80
2023-05-15T21:50:45.059Z,3.10
2023-05-15T21:53:12.511Z,2.90
2023-05-15T21:55:39.492Z,3.40
2023-05-15T21:58:06.907Z,2.80
2023-05-15T22:00:34.315Z,3.00
2023-05-15T22:03:01.360Z,2.70
2023-05-15T22:05:28.388Z,2.80
2023-05-15T22:07:55.768Z,3.10
2023-05-15T22:10:22.580Z,2.90
2023-05-15T22:12:49.621Z,2.90
2023-05-15T22:15:16.680Z,3.00
2023-05-15T22:17:43.674Z,3.20
2023-05-15T22:20:11.238Z,3.20
2023-05-15T22:22:38.858Z,3.10
2023-05-15T22:25:06.313Z,3.20
2023-05-15T22:27:33.583Z,3.00
2023-05-15T22:30:01.018Z,3.00
2023-05-15T22:32:30.503Z,2.90
2023-05-15T22:34:58.206Z,3.20
2023-05-15T22:37:25.088Z,3.70
2023-05-15T22:39:52.152Z,3.30
2023-05-15T22:42:20.631Z,3.50
2023-05-15T22:44:47.599Z,3.40
2023-05-15T22:47:14.476Z,3.70
2023-05-15T22:49:41.431Z,3.70
2023-05-15T22:52:08.297Z,3.50
2023-05-15T22:54:35.131Z,3.10
2023-05-15T22:57:02.013Z,3.30
2023-05-15T22:59:28.970Z,3.40
2023-05-15T23:01:55.925Z,3.40
2023-05-15T23:04:22.935Z,3.10
2023-05-15T23:06:49.850Z,3.60
2023-05-15T23:09:16.711Z,3.70
2023-05-15T23:11:43.588Z,3.10
2023-05-15T23:14:11.544Z,3.50
2023-05-15T23:16:38.329Z,3.50
2023-05-15T23:19:05.217Z,3.10
2023-05-15T23:21:32.420Z,3.20
2023-05-15T23:24:00.824Z,3.60
2023-05-15T23:26:27.640Z,3.70
2023-05-15T23:28:54.545Z,3.80
2023-05-15T23:31:21.540Z,3.80
2023-05-15T23:33:48.629Z,3.50
2023-05-15T23:36:20.022Z,3.90
2023-05-15T23:38:46.788Z,3.60
2023-05-15T23:41:13.666Z,3.40
2023-05-15T23:43:40.572Z,3.70
2023-05-15T23:46:07.403Z,3.70
2023-05-15T23:48:35.489Z,3.60
2023-05-15T23:51:02.990Z,3.70
2023-05-15T23:53:30.720Z,3.50
2023-05-15T23:55:57.562Z,3.50
2023-05-15T23:58:24.429Z,3.80
